Thuin, Belgium
Current Conditions -  °F | °C
As of 9:20 AM on Friday 31 Oct 2014 (Local Time) from EBCI Reporting Station
Clear Clear  
Wind Chill: 14°   Ceiling: Unl
Heat Index: 14°   Visibility: 6mi
Dew Point: 10°   Wind: 8mph
Humidity: 77%   Direction: 180°S
Pressure: 30.21"   Gusts: NA
Location:  50.34°N, 4.29°E
Report Text: EBCI 310820Z 18007KT 140V210 CAVOK 14/10 Q1023 NOSIG
Loading
Personal Weather Stations






























Interactive Weather Map
Tropical Storm Tracking
New forecast layout! Learn more

10-Day Weather Forecast

Advertisements
Track Severe Weather on mobile